createdAt,value
2023-04-11T00:01:49.631Z,16.00
2023-04-11T00:04:17.533Z,15.23
2023-04-11T00:06:44.317Z,19.30
2023-04-11T00:09:12.153Z,17.07
2023-04-11T00:11:38.988Z,19.37
2023-04-11T00:14:07.482Z,15.97
2023-04-11T00:16:34.419Z,14.83
2023-04-11T00:19:01.441Z,14.03
2023-04-11T00:21:28.387Z,13.30
2023-04-11T00:23:56.085Z,12.80
2023-04-11T00:26:22.777Z,12.80
2023-04-11T00:28:50.025Z,13.30
2023-04-11T00:31:16.726Z,14.40
2023-04-11T00:33:43.762Z,14.30
2023-04-11T00:36:11.265Z,14.83
2023-04-11T00:38:38.357Z,15.83
2023-04-11T00:41:05.714Z,17.33
2023-04-11T00:43:32.663Z,21.10
2023-04-11T00:45:59.764Z,21.33
2023-04-11T00:48:28.632Z,18.07
2023-04-11T00:50:56.012Z,18.57
2023-04-11T00:53:23.898Z,18.37
2023-04-11T00:55:51.209Z,16.20
2023-04-11T00:58:18.346Z,15.80
2023-04-11T01:00:49.463Z,16.40
2023-04-11T01:03:18.450Z,14.27
2023-04-11T01:05:46.881Z,14.27
2023-04-11T01:08:14.915Z,13.87
2023-04-11T01:10:42.250Z,12.70
2023-04-11T01:13:09.880Z,13.20
2023-04-11T01:15:37.010Z,13.07
2023-04-11T01:18:05.715Z,12.60
2023-04-11T01:20:33.430Z,13.40
2023-04-11T01:23:04.495Z,13.67
2023-04-11T01:25:31.435Z,14.27
2023-04-11T01:27:58.599Z,16.67
2023-04-11T01:30:25.380Z,17.67
2023-04-11T01:32:52.508Z,17.67
2023-04-11T01:35:19.351Z,15.93
2023-04-11T01:37:46.509Z,16.47
2023-04-11T01:40:19.504Z,16.67
2023-04-11T01:42:47.799Z,16.13
2023-04-11T01:45:15.148Z,15.13
2023-04-11T01:47:42.316Z,14.97
2023-04-11T01:50:09.535Z,15.13
2023-04-11T01:52:36.519Z,15.80
2023-04-11T01:55:03.705Z,14.43
2023-04-11T01:57:31.198Z,14.57
2023-04-11T01:59:57.971Z,15.30
2023-04-11T02:02:26.069Z,15.00
2023-04-11T02:04:53.099Z,14.77
2023-04-11T02:07:20.975Z,15.13
2023-04-11T02:09:47.897Z,15.90
2023-04-11T02:12:15.054Z,16.50
2023-04-11T02:14:44.307Z,15.73
2023-04-11T02:17:14.080Z,15.77
2023-04-11T02:19:45.473Z,18.07
2023-04-11T02:22:13.330Z,18.93
2023-04-11T02:24:40.749Z,18.70
2023-04-11T02:27:08.246Z,21.40
2023-04-11T02:29:35.352Z,19.90
2023-04-11T02:32:02.604Z,19.73
2023-04-11T02:34:29.561Z,25.80
2023-04-11T02:36:56.589Z,27.30
2023-04-11T02:39:26.378Z,27.17
2023-04-11T02:41:57.314Z,26.80
2023-04-11T02:44:26.290Z,25.43
2023-04-11T02:46:54.893Z,22.90
2023-04-11T02:49:21.954Z,23.00
2023-04-11T02:51:49.291Z,22.60
2023-04-11T02:54:16.078Z,21.20
2023-04-11T02:56:43.433Z,21.73
2023-04-11T02:59:10.216Z,20.97
2023-04-11T03:01:38.374Z,19.37
2023-04-11T03:04:07.159Z,19.50
2023-04-11T03:06:43.616Z,20.03
2023-04-11T03:09:10.604Z,19.73
2023-04-11T03:11:37.739Z,18.43
2023-04-11T03:14:05.583Z,19.00
2023-04-11T03:16:32.831Z,19.03
2023-04-11T03:18:59.955Z,17.87
2023-04-11T03:21:27.475Z,16.43
2023-04-11T03:23:54.437Z,18.03
2023-04-11T03:26:22.004Z,19.13
2023-04-11T03:28:48.851Z,18.33
2023-04-11T03:31:18.976Z,18.17
2023-04-11T03:33:46.826Z,17.13
2023-04-11T03:36:14.240Z,19.37
2023-04-11T03:38:41.681Z,19.63
2023-04-11T03:41:08.638Z,27.20
2023-04-11T03:43:35.400Z,27.10
2023-04-11T03:46:02.809Z,28.10
2023-04-11T03:48:39.291Z,26.43
2023-04-11T03:51:09.067Z,26.17
2023-04-11T03:53:41.652Z,23.27
2023-04-11T03:56:22.096Z,21.93
2023-04-11T03:58:49.142Z,21.80
2023-04-11T04:01:17.708Z,21.73
2023-04-11T04:03:46.289Z,20.10
2023-04-11T04:06:14.243Z,22.13
2023-04-11T04:08:41.030Z,23.77
2023-04-11T04:11:08.237Z,25.97
2023-04-11T04:13:36.787Z,24.13
2023-04-11T04:16:12.995Z,28.13
2023-04-11T04:18:43.488Z,30.90
2023-04-11T04:21:11.494Z,28.73
2023-04-11T04:23:39.440Z,28.53
2023-04-11T04:26:24.939Z,29.20
2023-04-11T04:29:06.820Z,28.63
2023-04-11T04:31:50.674Z,32.07
2023-04-11T04:34:21.946Z,33.83
2023-04-11T04:36:50.325Z,34.10
2023-04-11T04:39:25.364Z,31.47
2023-04-11T04:42:00.577Z,28.23
2023-04-11T04:44:34.707Z,29.03
2023-04-11T04:47:07.006Z,26.20
2023-04-11T04:49:33.790Z,25.60
2023-04-11T04:52:01.623Z,22.80
2023-04-11T04:54:28.721Z,23.87
2023-04-11T04:56:56.303Z,23.93
2023-04-11T04:59:24.157Z,20.93
2023-04-11T05:01:58.511Z,22.23
2023-04-11T05:04:29.889Z,19.60
2023-04-11T05:06:59.165Z,19.60
2023-04-11T05:09:28.326Z,19.70
2023-04-11T05:12:07.207Z,20.60
2023-04-11T05:14:36.534Z,20.23
2023-04-11T05:17:03.836Z,20.70
2023-04-11T05:19:30.659Z,19.67
2023-04-11T05:21:57.948Z,21.43
2023-04-11T05:24:24.840Z,20.23
2023-04-11T05:26:52.148Z,20.73
2023-04-11T05:29:20.952Z,21.40
2023-04-11T05:31:48.944Z,20.87
2023-04-11T05:34:15.924Z,19.63
2023-04-11T05:36:46.319Z,22.07
2023-04-11T05:39:13.400Z,20.87
2023-04-11T05:41:40.554Z,20.07
2023-04-11T05:44:07.527Z,19.60
2023-04-11T05:46:38.319Z,20.10
2023-04-11T05:49:05.744Z,19.23
2023-04-11T05:51:32.956Z,18.83
2023-04-11T05:53:59.649Z,19.17
2023-04-11T05:56:26.600Z,18.43
2023-04-11T05:58:53.575Z,17.90
2023-04-11T06:01:20.914Z,18.38
2023-04-11T06:03:48.562Z,18.10
2023-04-11T06:06:15.829Z,17.83
2023-04-11T06:08:42.910Z,17.17
2023-04-11T06:11:09.955Z,15.95
2023-04-11T06:13:36.754Z,17.30
2023-04-11T06:16:06.129Z,16.73
2023-04-11T06:18:32.873Z,16.67
2023-04-11T06:20:59.820Z,17.65
2023-04-11T06:23:26.710Z,16.83
2023-04-11T06:25:53.714Z,17.23
2023-04-11T06:28:20.733Z,17.37
2023-04-11T06:30:47.699Z,17.60
2023-04-11T06:33:14.708Z,17.75
2023-04-11T06:35:41.818Z,17.85
2023-04-11T06:38:08.619Z,18.52
2023-04-11T06:40:35.637Z,17.30
2023-04-11T06:43:02.425Z,17.42
2023-04-11T06:45:31.066Z,16.75
2023-04-11T06:47:57.852Z,18.30
2023-04-11T06:50:24.894Z,17.13
2023-04-11T06:52:51.799Z,18.25
2023-04-11T06:55:18.908Z,17.27
2023-04-11T06:57:45.838Z,16.73
2023-04-11T07:00:13.662Z,16.15
2023-04-11T07:02:41.150Z,16.65
2023-04-11T07:05:11.399Z,16.90
2023-04-11T07:07:38.482Z,14.52
2023-04-11T07:10:06.395Z,15.23
2023-04-11T07:12:33.085Z,13.65
2023-04-11T07:15:00.364Z,12.93
2023-04-11T07:17:27.128Z,13.88
2023-04-11T07:19:54.235Z,13.50
2023-04-11T07:22:21.737Z,12.15
2023-04-11T07:24:52.128Z,12.32
2023-04-11T07:27:19.445Z,12.52
2023-04-11T07:29:46.449Z,11.18
2023-04-11T07:32:13.164Z,11.80
2023-04-11T07:34:40.580Z,11.13
2023-04-11T07:37:07.437Z,10.57
2023-04-11T07:39:34.490Z,10.85
2023-04-11T07:42:01.873Z,10.43
2023-04-11T07:44:28.991Z,9.43
2023-04-11T07:46:55.768Z,9.10
2023-04-11T07:49:22.749Z,8.68
2023-04-11T07:51:49.506Z,8.68
2023-04-11T07:54:16.668Z,9.70
2023-04-11T07:56:43.476Z,8.93
2023-04-11T07:59:13.123Z,8.38
2023-04-11T08:01:39.925Z,8.43
2023-04-11T08:04:07.045Z,8.27
2023-04-11T08:06:34.381Z,7.75
2023-04-11T08:09:01.439Z,7.95
2023-04-11T08:11:28.193Z,8.00
2023-04-11T08:13:55.418Z,8.38
2023-04-11T08:16:22.461Z,8.10
2023-04-11T08:18:49.458Z,8.48
2023-04-11T08:21:16.278Z,7.47
2023-04-11T08:23:43.298Z,7.20
2023-04-11T08:26:11.991Z,6.82
2023-04-11T08:28:41.062Z,7.22
2023-04-11T08:31:10.521Z,7.65
2023-04-11T08:33:39.065Z,7.05
2023-04-11T08:36:09.948Z,7.28
2023-04-11T08:38:37.891Z,7.47
2023-04-11T08:41:04.786Z,6.82
2023-04-11T08:43:36.134Z,6.85
2023-04-11T08:46:07.899Z,5.88
2023-04-11T08:48:35.692Z,6.65
2023-04-11T08:51:02.489Z,6.40
2023-04-11T08:53:30.539Z,6.22
2023-04-11T08:55:57.400Z,6.47
2023-04-11T08:58:24.472Z,6.40
2023-04-11T09:00:51.227Z,6.30
2023-04-11T09:03:18.463Z,6.53
2023-04-11T09:05:48.263Z,6.78
2023-04-11T09:08:16.622Z,6.50
2023-04-11T09:10:47.941Z,6.50
2023-04-11T09:13:21.758Z,6.38
2023-04-11T09:16:10.461Z,6.75
2023-04-11T09:18:46.907Z,7.20
2023-04-11T09:21:16.852Z,6.43
2023-04-11T09:23:43.918Z,6.78
2023-04-11T09:26:12.674Z,6.60
2023-04-11T09:28:45.277Z,7.30
2023-04-11T09:31:13.424Z,6.05
2023-04-11T09:33:53.425Z,6.25
2023-04-11T09:36:22.834Z,7.43
2023-04-11T09:38:49.998Z,5.80
2023-04-11T09:41:38.240Z,6.45
2023-04-11T09:44:05.318Z,5.95
2023-04-11T09:46:32.975Z,5.85
2023-04-11T09:49:01.891Z,6.30
2023-04-11T09:51:36.588Z,5.65
2023-04-11T09:54:05.227Z,6.20
2023-04-11T09:56:34.496Z,5.55
2023-04-11T09:59:03.066Z,5.72
2023-04-11T10:01:29.892Z,5.70
2023-04-11T10:03:57.795Z,5.35
2023-04-11T10:06:38.691Z,6.07
2023-04-11T10:09:12.216Z,5.68
2023-04-11T10:11:43.970Z,5.95
2023-04-11T10:14:36.895Z,5.38
2023-04-11T10:17:21.313Z,4.78
2023-04-11T10:19:54.070Z,4.90
2023-04-11T10:22:46.514Z,4.82
2023-04-11T10:25:20.918Z,4.95
2023-04-11T10:27:49.359Z,5.32
2023-04-11T10:30:16.781Z,4.78
2023-04-11T10:33:23.452Z,4.97
2023-04-11T10:36:10.805Z,4.93
2023-04-11T10:38:43.784Z,5.35
2023-04-11T10:41:23.102Z,5.43
2023-04-11T10:44:16.284Z,5.45
2023-04-11T10:46:48.324Z,5.43
2023-04-11T10:49:40.396Z,5.35
2023-04-11T10:52:18.174Z,4.55
2023-04-11T10:54:46.780Z,5.57
2023-04-11T10:57:14.590Z,5.53
2023-04-11T10:59:44.091Z,5.97
2023-04-11T11:02:11.398Z,5.80
2023-04-11T11:04:40.468Z,5.68
2023-04-11T11:07:33.385Z,6.00
2023-04-11T11:10:00.238Z,5.80
2023-04-11T11:12:27.305Z,5.43
2023-04-11T11:15:19.803Z,5.55
2023-04-11T11:17:47.486Z,5.20
2023-04-11T11:20:20.173Z,5.05
2023-04-11T11:23:12.734Z,5.90
2023-04-11T11:25:39.495Z,5.97
2023-04-11T11:28:07.850Z,5.93
2023-04-11T11:30:36.098Z,5.43
2023-04-11T11:33:28.876Z,6.00
2023-04-11T11:35:59.959Z,5.55
2023-04-11T11:38:30.252Z,6.85
2023-04-11T11:41:17.470Z,5.20
2023-04-11T11:43:44.572Z,5.30
2023-04-11T11:46:15.169Z,5.28
2023-04-11T11:49:23.694Z,6.10
2023-04-11T11:51:50.478Z,6.07
2023-04-11T11:57:04.101Z,6.43
2023-04-11T11:59:31.102Z,5.25
2023-04-11T12:04:37.873Z,6.10
2023-04-11T12:07:22.879Z,6.95
2023-04-11T12:09:49.719Z,6.55
2023-04-11T12:12:19.816Z,6.63
2023-04-11T12:14:55.595Z,6.32
2023-04-11T12:17:55.052Z,5.40
2023-04-11T12:20:28.017Z,5.15
2023-04-11T12:23:48.943Z,5.40
2023-04-11T12:29:27.086Z,5.95
2023-04-11T12:32:51.606Z,6.07
2023-04-11T12:35:19.849Z,5.53
2023-04-11T12:37:46.708Z,5.10
2023-04-11T12:41:00.381Z,5.22
2023-04-11T12:44:02.387Z,5.57
2023-04-11T12:46:29.906Z,4.65
2023-04-11T12:48:57.048Z,5.00
2023-04-11T12:52:04.702Z,5.10
2023-04-11T12:54:32.298Z,4.78
2023-04-11T12:57:18.271Z,5.07
2023-04-11T12:59:45.138Z,5.22
2023-04-11T13:02:12.420Z,4.82
2023-04-11T13:04:39.376Z,4.78
2023-04-11T13:07:06.500Z,4.97
2023-04-11T13:09:58.945Z,5.40
2023-04-11T13:12:27.660Z,5.35
2023-04-11T13:14:56.740Z,4.95
2023-04-11T13:17:49.843Z,5.57
2023-04-11T13:20:16.930Z,4.85
2023-04-11T13:22:44.343Z,4.85
2023-04-11T13:25:36.692Z,6.50
2023-04-11T13:28:03.855Z,4.97
2023-04-11T13:30:30.691Z,5.13
2023-04-11T13:32:57.830Z,5.40
2023-04-11T13:35:56.916Z,5.03
2023-04-11T13:38:25.745Z,5.43
2023-04-11T13:40:52.551Z,5.18
2023-04-11T13:43:19.552Z,5.97
2023-04-11T13:45:46.299Z,5.00
2023-04-11T13:48:13.365Z,4.75
2023-04-11T13:50:40.613Z,5.93
2023-04-11T13:53:32.690Z,5.43
2023-04-11T13:55:59.425Z,5.18
2023-04-11T13:58:26.492Z,6.97
2023-04-11T14:00:53.218Z,6.57
2023-04-11T14:03:50.237Z,5.63
2023-04-11T14:06:18.358Z,5.78
2023-04-11T14:11:27.354Z,5.57
2023-04-11T14:13:54.630Z,6.35
2023-04-11T14:16:21.617Z,6.00
2023-04-11T14:18:48.665Z,6.03
2023-04-11T14:21:40.958Z,5.75
2023-04-11T14:24:08.654Z,5.80
2023-04-11T14:26:35.592Z,6.07
2023-04-11T14:29:20.981Z,5.53
2023-04-11T14:31:49.806Z,5.90
2023-04-11T14:34:18.485Z,5.72
2023-04-11T14:36:45.435Z,5.93
2023-04-11T14:39:46.902Z,7.63
2023-04-11T14:42:13.800Z,6.40
2023-04-11T14:44:40.992Z,8.48
2023-04-11T14:47:32.804Z,11.98
2023-04-11T14:50:00.561Z,11.32
2023-04-11T14:52:27.284Z,12.45
2023-04-11T14:54:54.312Z,10.88
2023-04-11T14:57:53.936Z,14.30
2023-04-11T15:00:21.921Z,14.55
2023-04-11T15:05:42.548Z,15.32
2023-04-11T15:08:09.946Z,16.38
2023-04-11T15:10:36.940Z,16.10
2023-04-11T15:13:28.977Z,16.65
2023-04-11T15:16:06.520Z,17.80
2023-04-11T15:18:33.357Z,17.13
2023-04-11T15:21:27.296Z,18.83
2023-04-11T15:23:54.138Z,18.80
2023-04-11T15:26:22.111Z,19.67
2023-04-11T15:29:14.752Z,19.60
2023-04-11T15:31:41.945Z,22.17
2023-04-11T15:34:08.705Z,20.73
2023-04-11T15:39:19.376Z,18.17
2023-04-11T15:41:47.385Z,19.05
2023-04-11T15:44:14.179Z,16.45
2023-04-11T15:46:41.266Z,15.60
2023-04-11T15:49:32.859Z,15.30
2023-04-11T15:52:00.203Z,14.60
2023-04-11T15:54:26.947Z,14.75
2023-04-11T15:56:53.974Z,13.57
2023-04-11T15:59:45.915Z,11.02
2023-04-11T16:02:15.154Z,9.55
2023-04-11T16:04:46.341Z,9.27
2023-04-11T16:07:44.438Z,8.85
2023-04-11T16:10:11.397Z,7.65
2023-04-11T16:12:39.212Z,6.90
2023-04-11T16:15:31.568Z,6.75
2023-04-11T16:17:58.606Z,6.83
2023-04-11T16:20:25.477Z,6.83
2023-04-11T16:23:17.741Z,6.63
2023-04-11T16:25:44.961Z,6.45
2023-04-11T16:28:14.156Z,7.82
2023-04-11T16:30:40.950Z,6.90
2023-04-11T16:33:33.152Z,6.33
2023-04-11T16:35:59.964Z,6.40
2023-04-11T16:38:27.181Z,4.43
2023-04-11T16:40:53.997Z,5.77
2023-04-11T16:43:21.127Z,6.57
2023-04-11T16:46:26.854Z,4.30
2023-04-11T16:48:53.925Z,3.30
2023-04-11T16:51:46.425Z,5.50
2023-04-11T16:54:13.748Z,5.70
2023-04-11T16:56:40.773Z,6.53
2023-04-11T16:59:07.843Z,6.33
2023-04-11T17:01:34.781Z,5.40
2023-04-11T17:04:02.122Z,6.80
2023-04-11T17:06:29.210Z,7.10
2023-04-11T17:08:57.566Z,6.65
2023-04-11T17:11:24.822Z,6.43
2023-04-11T17:13:54.496Z,6.63
2023-04-11T17:16:21.700Z,9.93
2023-04-11T17:18:48.729Z,8.37
2023-04-11T17:21:16.690Z,7.37
2023-04-11T17:23:44.089Z,7.13
2023-04-11T17:26:11.947Z,4.87
2023-04-11T17:28:39.867Z,7.70
2023-04-11T17:31:18.669Z,8.23
2023-04-11T17:33:45.891Z,8.77
2023-04-11T17:36:12.859Z,6.40
2023-04-11T17:38:40.927Z,3.77
2023-04-11T17:41:14.331Z,2.53
2023-04-11T17:43:43.477Z,3.00
2023-04-11T17:46:10.447Z,3.17
2023-04-11T17:48:37.785Z,3.13
2023-04-11T17:51:05.717Z,3.27
2023-04-11T17:53:33.466Z,2.90
2023-04-11T17:56:05.900Z,3.03
2023-04-11T17:58:33.850Z,3.60
2023-04-11T18:01:00.861Z,3.43
2023-04-11T18:03:28.238Z,10.20
2023-04-11T18:05:55.545Z,2.97
2023-04-11T18:08:36.166Z,3.80
2023-04-11T18:11:09.787Z,2.10
2023-04-11T18:13:36.802Z,1.93
2023-04-11T18:16:04.355Z,2.40
2023-04-11T18:18:31.493Z,2.30
2023-04-11T18:21:07.157Z,2.73
2023-04-11T18:23:35.302Z,2.77
2023-04-11T18:26:02.233Z,3.20
2023-04-11T18:28:29.363Z,4.43
2023-04-11T18:30:56.309Z,3.17
2023-04-11T18:33:23.467Z,3.93
2023-04-11T18:35:50.399Z,4.67
2023-04-11T18:38:17.760Z,3.47
2023-04-11T18:40:44.519Z,3.37
2023-04-11T18:43:11.599Z,2.97
2023-04-11T18:45:39.441Z,3.73
2023-04-11T18:50:38.942Z,4.77
2023-04-11T18:53:10.060Z,4.87
2023-04-11T18:55:40.103Z,4.40
2023-04-11T18:58:09.078Z,4.57
2023-04-11T19:00:39.006Z,4.80
2023-04-11T19:03:06.911Z,4.03
2023-04-11T19:05:34.492Z,4.47
2023-04-11T19:08:01.855Z,4.73
2023-04-11T19:10:28.934Z,5.07
2023-04-11T19:12:56.018Z,5.73
2023-04-11T19:15:22.854Z,5.50
2023-04-11T19:17:50.019Z,5.53
2023-04-11T19:20:17.724Z,4.23
2023-04-11T19:22:46.235Z,5.60
2023-04-11T19:25:13.120Z,5.17
2023-04-11T19:27:42.333Z,5.10
2023-04-11T19:30:11.037Z,4.90
2023-04-11T19:32:40.780Z,5.30
2023-04-11T19:35:10.476Z,6.03
2023-04-11T19:37:37.797Z,7.70
2023-04-11T19:40:07.212Z,8.70
2023-04-11T19:42:37.163Z,9.57
2023-04-11T19:45:05.144Z,11.30
2023-04-11T19:47:32.982Z,11.23
2023-04-11T19:50:01.203Z,12.00
2023-04-11T19:52:29.082Z,10.97
2023-04-11T19:54:56.692Z,10.87
2023-04-11T19:57:27.462Z,10.63
2023-04-11T19:59:54.640Z,9.87
2023-04-11T20:02:21.681Z,8.83
2023-04-11T20:04:49.635Z,7.23
2023-04-11T20:07:16.692Z,6.57
2023-04-11T20:09:43.830Z,6.47
2023-04-11T20:12:10.743Z,6.20
2023-04-11T20:14:38.308Z,5.23
2023-04-11T20:17:06.154Z,5.23
2023-04-11T20:19:37.645Z,5.07
2023-04-11T20:22:04.744Z,5.07
2023-04-11T20:24:31.774Z,5.67
2023-04-11T20:26:58.653Z,5.57
2023-04-11T20:29:32.818Z,5.20
2023-04-11T20:32:00.005Z,4.60
2023-04-11T20:34:27.311Z,6.40
2023-04-11T20:36:54.369Z,6.03
2023-04-11T20:39:22.146Z,5.80
2023-04-11T20:41:49.913Z,6.27
2023-04-11T20:44:18.253Z,5.80
2023-04-11T20:46:46.126Z,6.10
2023-04-11T20:49:13.130Z,5.60
2023-04-11T20:51:39.864Z,6.43
2023-04-11T20:54:07.103Z,6.73
2023-04-11T20:56:35.430Z,6.93
2023-04-11T20:59:03.514Z,6.70
2023-04-11T21:01:33.666Z,6.87
2023-04-11T21:04:02.317Z,6.73
2023-04-11T21:06:31.713Z,6.90
2023-04-11T21:09:02.783Z,7.77
2023-04-11T21:11:29.534Z,7.63
2023-04-11T21:13:56.806Z,7.40
2023-04-11T21:16:23.886Z,7.20
2023-04-11T21:18:51.064Z,7.83
2023-04-11T21:21:17.782Z,8.63
2023-04-11T21:23:44.743Z,7.60
2023-04-11T21:26:11.865Z,8.97
2023-04-11T21:28:39.034Z,8.60
2023-04-11T21:31:06.159Z,8.90
2023-04-11T21:33:33.225Z,9.10
2023-04-11T21:36:00.163Z,9.87
2023-04-11T21:38:27.234Z,9.27
2023-04-11T21:40:54.027Z,9.47
2023-04-11T21:43:21.036Z,8.83
2023-04-11T21:45:47.822Z,8.93
2023-04-11T21:48:14.997Z,9.33
2023-04-11T21:50:41.845Z,9.07
2023-04-11T21:53:08.908Z,8.77
2023-04-11T21:55:35.650Z,8.67
2023-04-11T21:58:02.769Z,8.97
2023-04-11T22:00:29.509Z,8.90
2023-04-11T22:02:56.722Z,8.53
2023-04-11T22:05:23.739Z,8.50
2023-04-11T22:07:51.034Z,7.90
2023-04-11T22:10:22.964Z,8.73
2023-04-11T22:12:53.875Z,8.17
2023-04-11T22:15:20.961Z,8.00
2023-04-11T22:17:50.838Z,7.67
2023-04-11T22:20:18.413Z,7.80
2023-04-11T22:22:45.485Z,7.63
2023-04-11T22:25:12.318Z,8.30
2023-04-11T22:27:39.498Z,8.53
2023-04-11T22:30:07.534Z,7.80
2023-04-11T22:32:34.737Z,8.63
2023-04-11T22:35:01.731Z,8.07
2023-04-11T22:37:28.754Z,8.53
2023-04-11T22:39:55.708Z,9.63
2023-04-11T22:42:22.739Z,8.20
2023-04-11T22:44:49.493Z,9.40
2023-04-11T22:47:16.881Z,8.47
2023-04-11T22:49:44.728Z,9.40
2023-04-11T22:52:15.614Z,8.43
2023-04-11T22:54:43.112Z,8.20
2023-04-11T22:57:10.473Z,8.67
2023-04-11T22:59:37.395Z,8.27
2023-04-11T23:02:04.440Z,8.47
2023-04-11T23:04:32.155Z,9.70
2023-04-11T23:06:59.656Z,9.33
2023-04-11T23:09:26.512Z,8.80
2023-04-11T23:11:53.602Z,9.23
2023-04-11T23:14:21.169Z,9.17
2023-04-11T23:16:48.733Z,8.43
2023-04-11T23:19:15.765Z,8.07
2023-04-11T23:21:44.143Z,8.47
2023-04-11T23:24:11.119Z,8.40
2023-04-11T23:26:38.213Z,8.20
2023-04-11T23:29:04.920Z,8.60
2023-04-11T23:31:32.624Z,9.37
2023-04-11T23:34:00.420Z,9.43
2023-04-11T23:36:28.099Z,9.50
2023-04-11T23:38:55.166Z,8.97
2023-04-11T23:41:22.182Z,9.37
2023-04-11T23:43:49.099Z,9.40
2023-04-11T23:46:18.088Z,10.40
2023-04-11T23:48:46.909Z,9.93
2023-04-11T23:51:14.805Z,10.83
2023-04-11T23:53:42.681Z,10.43
2023-04-11T23:56:09.938Z,10.70
2023-04-11T23:58:37.491Z,11.13
